CheckWX is a tool to help pilots better visualize weather data.  It is not intended as a substitute for an official pre-flight weather briefing.

13:42:13 UTC

KLVN METAR
Airlake Airport
Minneapolis, Minnesota, USA
Current

47 mins ago

KLVN 201255Z AUTO 04006KT 10SM TS OVC050 23/18 A2985 RMK AO2 LTG DSNT ALQD
Observed
Jul-20 @ 12:55 UTC
Wind
  • 040° at 6 KTS
Visibility
10 SM
Flight Rules
VFR
Conditions
Thunderstorm
Cloud Levels
  • Overcast at 5,000' AGL
Temperature
23°C / 73°F
Dewpoint
18°C / 64°F
Humidity
74%
Altimeter
29.85" Hg
Pressure
1010.82 hPa
Previous

1 hour ago

KLVN 201240Z AUTO 01009G17KT 350V040 10SM TS BKN050 23/19 A2981 RMK AO2 LT
Observed
Jul-20 @ 12:40 UTC
Wind
  • 010° at 9 KTS
  • Gusting to 17 KTS
Visibility
10 SM
Flight Rules
VFR
Conditions
Thunderstorm
Cloud Levels
  • Broken at 5,000' AGL
Temperature
23°C / 73°F
Dewpoint
19°C / 66°F
Humidity
78%
Altimeter
29.81" Hg
Pressure
1009.52 hPa
Previous

1 hour ago

KLVN 201215Z AUTO 02011G16KT 10SM VCTS OVC050 23/21 A2976 RMK AO2 LTG DSNT
Observed
Jul-20 @ 12:15 UTC
Wind
  • 020° at 11 KTS
  • Gusting to 16 KTS
Visibility
10 SM
Flight Rules
VFR
Conditions
Area Thunderstorm
Cloud Levels
  • Overcast at 5,000' AGL
Temperature
23°C / 73°F
Dewpoint
21°C / 70°F
Humidity
89%
Altimeter
29.76" Hg
Pressure
1007.82 hPa